Strona główna
METAR-TAF:

METAR-TAF

Lotnisko :

Port lotniczy Sewilla-San Pablo

Sewilla, Hiszpania

Szerokość geograficzna: 37-25N, Długość geograficzna: 005-54W, wysokość: 34 m

Aktualna obserwacja pogody

Raport powstał 35 minut temu, godzina 18:30 UTC
Wiatr 14 kt od zachodnio-południowy zachód
Temperatura 33°C
Wilgotność 30%
Ciśnienie 1006 hPa
Widzialność 10 km lub więcej
Brak chmur poniżej 1500 m i brak chmur cumulonimbus

METAR: LEZL 251830Z 25014KT CAVOK 33/13 Q1006 NOSIG

czas: 21:05 (19:05 UTC)

Prognoza

Raport powstał 5 godziny i 5 minut temu, godzina 14:00 UTC
Prognoza ważna od 25 godzina 15 UTC do 26 godzina 15 UTC
Wiatr 10 kt od zachodnio-południowy zachód
Widzialność 10 km lub więcej
Brak chmur poniżej 1500 m i brak chmur cumulonimbus

TAF: LEZL 251400Z 2515/2615 25010KT CAVOK TX36/2515Z TN20/2605Z

Obserwacja i prognoza pogody dla ponad 4000 lotnisk (raport METAR i TAF).

Dostępne stacje oznaczono żółtymi i czerwonymi punktami na mapie.

Najedź kursorem aby zobaczyć nazwę stacji.

Kliknij aby zobaczyć obserwacje i prognozy pogody.

Aby zmienić mapę: kliknij na zielony przycisk z czarnym krzyżykiem, aby powiększyć; na zielony przycisk z myślnikiem, aby pomniejszyć; na zielone strzałki, aby przejść do map sąsiednich.


METAR-TAF: